Item Display Status Humidity-temperature Sensor

Elevation Above Sea Level: 3 m

 

Deployed Sensor

  • Serial Number: 61085449
  • NDBC Property Number: 36571
  • Start Date: 12/6/2018 (14:51:27 Z)
  • End Date: Currently Active
Relative Humidity [%]     6 entries per hour
Showing data from 7/2/2019 (11:50:00 Z) to 7/1/2019 (23:00:00 Z)
Previous Next [ Day | 3-Days | 7-Days ]
First Last
Prev [ Day | 3-Days | 7-Days ] Next
First Last

Start Time:     :
End Time:     :     
Time (in GMT) :00 :50 :40 :30 :20 :10
Previous Next [ Day | 3-Days | 7-Days ]
First Last
Prev [ Day | 3-Days | 7-Days ] Next
First Last


123 => good data
MM => data is determined as missing
-- => data not received/configured
Back to Top Back to Top
7/2/2019 12:00 to 11:10 -- 93.35 93.37 93.17 92.52 93.00
7/2/2019 11:00 to 10:10 93.26 92.50 92.09 91.79 91.70 92.09
7/2/2019 10:00 to 9:10 92.33 93.50 93.05 92.50 92.22 92.17
7/2/2019 09:00 to 8:10 92.67 92.28 91.24 91.50 91.76 92.18
7/2/2019 08:00 to 7:10 92.24 91.83 91.52 91.22 90.67 90.41
7/2/2019 07:00 to 6:10 90.18 89.96 90.07 90.22 89.67 89.96
7/2/2019 06:00 to 5:10 90.09 90.09 90.39 90.76 90.61 90.07
7/2/2019 05:00 to 4:10 89.18 89.35 88.31 89.44 92.98 93.48
7/2/2019 04:00 to 3:10 94.26 94.44 93.96 93.85 94.61 94.89
7/2/2019 03:00 to 2:10 95.13 94.83 94.15 93.52 93.20 93.28
7/2/2019 02:00 to 1:10 93.04 93.65 93.55 93.78 92.94 91.92
7/2/2019 01:00 to 0:10 91.29 90.57 90.33 92.33 92.20 91.28
7/2/2019 00:00 to 23:10 91.65 94.05 93.50 93.09 93.20 93.13

 

 

 

Air Temperature [°C]     6 entries per hour
Showing data from 6/9/2020 (11:50:00 Z) to 6/8/2020 (00:00:01 Z)
Previous Next [ Day | 3-Days | 7-Days ]
First Last
Prev [ Day | 3-Days | 7-Days ] Next
First Last

Start Time:     :
End Time:     :     
Time (in GMT) :00 :50 :40 :30 :20 :10
Previous Next [ Day | 3-Days | 7-Days ]
First Last
Prev [ Day | 3-Days | 7-Days ] Next
First Last


123 => good data
MM => data is determined as missing
-- => data not received/configured
Back to Top Back to Top
6/9/2020 12:00 to 11:10 -- 21.92 21.95 21.97 22.02 21.96
6/9/2020 11:00 to 10:10 22.04 22.01 22.00 22.05 22.04 21.96
6/9/2020 10:00 to 9:10 22.04 22.07 21.96 21.98 22.03 22.12
6/9/2020 09:00 to 8:10 22.15 22.20 22.14 22.13 22.19 22.20
6/9/2020 08:00 to 7:10 22.23 22.27 22.31 22.31 22.32 22.35
6/9/2020 07:00 to 6:10 22.32 22.30 22.29 22.35 22.32 22.35
6/9/2020 06:00 to 5:10 22.35 22.43 22.49 22.46 22.44 22.44
6/9/2020 05:00 to 4:10 22.46 22.43 22.43 22.45 22.35 22.47
6/9/2020 04:00 to 3:10 22.46 22.51 22.58 22.59 22.51 22.53
6/9/2020 03:00 to 2:10 22.50 22.57 22.55 22.52 22.45 22.56
6/9/2020 02:00 to 1:10 22.56 22.62 22.60 22.60 22.60 22.68
6/9/2020 01:00 to 0:10 -- -- -- -- -- --
6/9/2020 00:00 to 23:10 22.90 22.83 22.84 22.82 22.78 22.83
6/8/2020 23:00 to 22:10 22.80 22.84 22.80 22.79 22.79 22.81
6/8/2020 22:00 to 21:10 22.81 22.78 22.77 22.78 22.79 22.66
6/8/2020 21:00 to 20:10 22.70 22.67 22.74 22.73 22.60 22.62
6/8/2020 20:00 to 19:10 22.62 22.59 22.53 22.56 22.42 22.56
6/8/2020 19:00 to 18:10 22.56 22.51 22.51 22.47 22.48 22.46
6/8/2020 18:00 to 17:10 22.40 22.39 22.41 22.33 22.37 22.32
6/8/2020 17:00 to 16:10 22.35 22.31 22.33 22.37 22.34 22.37
6/8/2020 16:00 to 15:10 22.40 22.50 22.48 22.49 22.47 22.35
6/8/2020 15:00 to 14:10 22.41 22.38 22.39 22.42 22.38 22.31
6/8/2020 14:00 to 13:10 22.33 22.21 22.16 22.13 22.10 22.13
6/8/2020 13:00 to 12:10 22.06 22.12 22.08 22.05 22.07 22.02
6/8/2020 12:00 to 11:10 22.01 22.00 22.00 21.99 21.99 22.03
6/8/2020 11:00 to 10:10 22.05 22.02 22.04 22.02 22.06 22.04
6/8/2020 10:00 to 9:10 22.06 22.04 22.07 22.11 22.13 22.10
6/8/2020 09:00 to 8:10 22.07 22.09 22.10 22.11 22.11 22.14
6/8/2020 08:00 to 7:10 22.12 22.15 22.19 22.22 22.21 22.24
6/8/2020 07:00 to 6:10 22.22 22.26 22.24 22.26 22.30 22.29
6/8/2020 06:00 to 5:10 22.30 22.31 22.33 22.36 22.36 22.35
6/8/2020 05:00 to 4:10 22.36 22.38 22.37 22.38 22.37 22.37
6/8/2020 04:00 to 3:10 22.35 22.34 22.37 22.38 22.40 22.42
6/8/2020 03:00 to 2:10 22.45 22.47 22.48 22.53 22.55 22.60
6/8/2020 02:00 to 1:10 22.60 22.61 22.63 22.64 22.66 22.71
6/8/2020 01:00 to 0:10 22.76 22.84 22.97 22.97 23.08 23.19